sensor_id;sensor_type;location;lat;lon;timestamp;P1;durP1;ratioP1;P2;durP2;ratioP2
16642;SDS011;8435;52.184;5.406;2024-03-23T00:54:31;15.70;;;7.17;;
16642;SDS011;8435;52.184;5.406;2024-03-23T00:56:58;16.07;;;8.23;;
16642;SDS011;8435;52.184;5.406;2024-03-23T00:59:23;11.47;;;7.00;;
16642;SDS011;8435;52.184;5.406;2024-03-23T01:01:53;15.10;;;8.10;;
16642;SDS011;8435;52.184;5.406;2024-03-23T01:04:19;16.10;;;7.70;;
16642;SDS011;8435;52.184;5.406;2024-03-23T01:06:46;12.57;;;7.30;;
16642;SDS011;8435;52.184;5.406;2024-03-23T01:09:12;12.90;;;6.63;;
16642;SDS011;8435;52.184;5.406;2024-03-23T01:11:40;18.83;;;7.83;;
16642;SDS011;8435;52.184;5.406;2024-03-23T01:14:06;17.63;;;7.03;;
16642;SDS011;8435;52.184;5.406;2024-03-23T01:16:32;16.47;;;7.53;;
16642;SDS011;8435;52.184;5.406;2024-03-23T01:18:58;15.40;;;7.17;;
16642;SDS011;8435;52.184;5.406;2024-03-23T01:21:25;13.43;;;6.40;;
16642;SDS011;8435;52.184;5.406;2024-03-23T01:23:51;18.80;;;7.43;;
16642;SDS011;8435;52.184;5.406;2024-03-23T01:26:18;14.50;;;6.93;;
16642;SDS011;8435;52.184;5.406;2024-03-23T01:28:45;12.90;;;6.27;;
16642;SDS011;8435;52.184;5.406;2024-03-23T01:31:11;14.70;;;7.10;;
16642;SDS011;8435;52.184;5.406;2024-03-23T01:33:37;12.77;;;7.07;;
16642;SDS011;8435;52.184;5.406;2024-03-23T01:36:04;15.80;;;7.13;;
16642;SDS011;8435;52.184;5.406;2024-03-23T01:38:30;17.90;;;7.33;;
16642;SDS011;8435;52.184;5.406;2024-03-23T01:40:57;13.07;;;7.37;;
16642;SDS011;8435;52.184;5.406;2024-03-23T01:43:23;17.03;;;7.10;;
16642;SDS011;8435;52.184;5.406;2024-03-23T01:45:51;16.13;;;6.60;;
16642;SDS011;8435;52.184;5.406;2024-03-23T01:48:18;13.70;;;6.83;;
16642;SDS011;8435;52.184;5.406;2024-03-23T01:50:45;16.37;;;7.60;;
16642;SDS011;8435;52.184;5.406;2024-03-23T01:53:11;15.47;;;7.77;;
16642;SDS011;8435;52.184;5.406;2024-03-23T01:55:42;14.90;;;7.60;;
16642;SDS011;8435;52.184;5.406;2024-03-23T01:58:08;15.87;;;7.23;;
16642;SDS011;8435;52.184;5.406;2024-03-23T02:00:34;14.00;;;7.67;;
16642;SDS011;8435;52.184;5.406;2024-03-23T02:03:01;13.73;;;7.53;;
16642;SDS011;8435;52.184;5.406;2024-03-23T02:05:28;15.07;;;7.27;;
16642;SDS011;8435;52.184;5.406;2024-03-23T02:07:55;14.27;;;7.50;;
16642;SDS011;8435;52.184;5.406;2024-03-23T02:10:22;14.73;;;7.60;;
16642;SDS011;8435;52.184;5.406;2024-03-23T02:12:49;17.80;;;7.03;;
16642;SDS011;8435;52.184;5.406;2024-03-23T02:15:14;11.00;;;6.97;;
16642;SDS011;8435;52.184;5.406;2024-03-23T02:17:41;13.63;;;7.80;;
16642;SDS011;8435;52.184;5.406;2024-03-23T02:20:10;12.23;;;7.00;;
16642;SDS011;8435;52.184;5.406;2024-03-23T02:22:38;15.40;;;7.50;;
16642;SDS011;8435;52.184;5.406;2024-03-23T02:25:06;16.00;;;7.23;;
16642;SDS011;8435;52.184;5.406;2024-03-23T02:27:33;16.40;;;6.73;;
16642;SDS011;8435;52.184;5.406;2024-03-23T02:30:00;14.93;;;6.43;;
16642;SDS011;8435;52.184;5.406;2024-03-23T02:32:27;16.53;;;7.83;;
16642;SDS011;8435;52.184;5.406;2024-03-23T02:34:53;12.77;;;7.07;;
16642;SDS011;8435;52.184;5.406;2024-03-23T02:37:20;14.03;;;7.20;;
16642;SDS011;8435;52.184;5.406;2024-03-23T02:39:45;14.07;;;6.57;;
16642;SDS011;8435;52.184;5.406;2024-03-23T02:42:14;14.20;;;6.33;;
16642;SDS011;8435;52.184;5.406;2024-03-23T02:44:42;15.10;;;7.03;;
16642;SDS011;8435;52.184;5.406;2024-03-23T02:47:08;14.90;;;7.17;;
16642;SDS011;8435;52.184;5.406;2024-03-23T02:49:34;14.83;;;5.97;;
16642;SDS011;8435;52.184;5.406;2024-03-23T02:52:01;12.73;;;6.27;;
16642;SDS011;8435;52.184;5.406;2024-03-23T02:54:26;12.13;;;5.70;;
16642;SDS011;8435;52.184;5.406;2024-03-23T02:56:53;13.90;;;5.33;;
16642;SDS011;8435;52.184;5.406;2024-03-23T02:59:21;14.20;;;5.80;;
16642;SDS011;8435;52.184;5.406;2024-03-23T03:01:47;12.13;;;5.60;;
16642;SDS011;8435;52.184;5.406;2024-03-23T03:04:13;14.10;;;5.53;;
16642;SDS011;8435;52.184;5.406;2024-03-23T03:06:40;14.43;;;6.03;;
16642;SDS011;8435;52.184;5.406;2024-03-23T03:09:06;12.50;;;5.77;;
16642;SDS011;8435;52.184;5.406;2024-03-23T03:11:33;11.67;;;5.17;;
16642;SDS011;8435;52.184;5.406;2024-03-23T03:13:59;15.30;;;6.17;;
16642;SDS011;8435;52.184;5.406;2024-03-23T03:16:27;11.03;;;5.27;;
16642;SDS011;8435;52.184;5.406;2024-03-23T03:18:53;11.33;;;5.53;;
16642;SDS011;8435;52.184;5.406;2024-03-23T03:21:21;12.37;;;5.07;;
16642;SDS011;8435;52.184;5.406;2024-03-23T03:23:47;12.43;;;5.13;;
16642;SDS011;8435;52.184;5.406;2024-03-23T03:26:15;10.33;;;4.87;;
16642;SDS011;8435;52.184;5.406;2024-03-23T03:28:41;9.53;;;4.70;;
16642;SDS011;8435;52.184;5.406;2024-03-23T03:31:08;11.17;;;4.60;;
16642;SDS011;8435;52.184;5.406;2024-03-23T03:33:35;12.03;;;4.93;;
16642;SDS011;8435;52.184;5.406;2024-03-23T03:36:02;11.57;;;4.30;;
16642;SDS011;8435;52.184;5.406;2024-03-23T03:38:28;11.90;;;4.37;;
16642;SDS011;8435;52.184;5.406;2024-03-23T03:40:55;7.97;;;4.07;;
16642;SDS011;8435;52.184;5.406;2024-03-23T03:43:21;8.43;;;3.90;;
16642;SDS011;8435;52.184;5.406;2024-03-23T03:45:51;12.27;;;4.23;;
16642;SDS011;8435;52.184;5.406;2024-03-23T03:48:17;9.40;;;4.00;;
16642;SDS011;8435;52.184;5.406;2024-03-23T03:50:45;9.30;;;3.77;;
16642;SDS011;8435;52.184;5.406;2024-03-23T03:53:11;13.80;;;4.53;;
16642;SDS011;8435;52.184;5.406;2024-03-23T03:55:38;8.33;;;3.63;;
16642;SDS011;8435;52.184;5.406;2024-03-23T03:58:04;9.33;;;4.13;;
16642;SDS011;8435;52.184;5.406;2024-03-23T04:00:30;8.17;;;3.73;;
16642;SDS011;8435;52.184;5.406;2024-03-23T04:02:56;7.73;;;3.40;;
16642;SDS011;8435;52.184;5.406;2024-03-23T04:05:23;8.23;;;3.70;;
16642;SDS011;8435;52.184;5.406;2024-03-23T04:07:51;17.13;;;4.13;;
16642;SDS011;8435;52.184;5.406;2024-03-23T04:10:17;10.70;;;3.67;;
16642;SDS011;8435;52.184;5.406;2024-03-23T04:12:43;9.30;;;3.40;;
16642;SDS011;8435;52.184;5.406;2024-03-23T04:15:11;10.87;;;3.73;;
16642;SDS011;8435;52.184;5.406;2024-03-23T04:17:36;8.93;;;3.50;;
16642;SDS011;8435;52.184;5.406;2024-03-23T04:20:04;8.63;;;3.53;;
16642;SDS011;8435;52.184;5.406;2024-03-23T04:22:34;9.63;;;3.50;;
16642;SDS011;8435;52.184;5.406;2024-03-23T04:25:02;6.10;;;2.97;;
16642;SDS011;8435;52.184;5.406;2024-03-23T04:27:31;10.90;;;2.60;;
16642;SDS011;8435;52.184;5.406;2024-03-23T04:29:58;9.67;;;3.10;;
16642;SDS011;8435;52.184;5.406;2024-03-23T04:32:26;9.30;;;2.87;;
16642;SDS011;8435;52.184;5.406;2024-03-23T04:34:53;9.53;;;3.03;;
16642;SDS011;8435;52.184;5.406;2024-03-23T04:37:19;10.33;;;2.87;;
16642;SDS011;8435;52.184;5.406;2024-03-23T04:39:46;9.47;;;3.00;;
16642;SDS011;8435;52.184;5.406;2024-03-23T04:42:15;5.43;;;2.43;;
16642;SDS011;8435;52.184;5.406;2024-03-23T04:44:42;7.17;;;2.70;;
16642;SDS011;8435;52.184;5.406;2024-03-23T04:47:10;10.63;;;3.07;;
16642;SDS011;8435;52.184;5.406;2024-03-23T04:49:37;6.20;;;3.00;;
16642;SDS011;8435;52.184;5.406;2024-03-23T04:52:04;10.07;;;2.43;;
16642;SDS011;8435;52.184;5.406;2024-03-23T04:54:31;7.30;;;3.10;;
16642;SDS011;8435;52.184;5.406;2024-03-23T04:56:58;12.50;;;3.43;;
16642;SDS011;8435;52.184;5.406;2024-03-23T04:59:27;10.07;;;3.37;;
16642;SDS011;8435;52.184;5.406;2024-03-23T05:01:52;7.80;;;2.67;;
16642;SDS011;8435;52.184;5.406;2024-03-23T05:04:19;7.23;;;2.83;;
16642;SDS011;8435;52.184;5.406;2024-03-23T05:06:45;9.20;;;3.30;;
16642;SDS011;8435;52.184;5.406;2024-03-23T05:09:12;9.47;;;2.70;;
16642;SDS011;8435;52.184;5.406;2024-03-23T05:11:38;9.07;;;3.20;;
16642;SDS011;8435;52.184;5.406;2024-03-23T05:14:05;6.70;;;2.80;;
16642;SDS011;8435;52.184;5.406;2024-03-23T05:16:32;8.53;;;2.80;;
16642;SDS011;8435;52.184;5.406;2024-03-23T05:18:58;5.93;;;2.73;;
16642;SDS011;8435;52.184;5.406;2024-03-23T05:21:24;7.40;;;3.03;;
16642;SDS011;8435;52.184;5.406;2024-03-23T05:23:51;5.77;;;2.53;;
16642;SDS011;8435;52.184;5.406;2024-03-23T05:26:18;5.80;;;2.90;;
16642;SDS011;8435;52.184;5.406;2024-03-23T05:28:45;7.20;;;2.33;;
16642;SDS011;8435;52.184;5.406;2024-03-23T05:31:11;5.50;;;2.40;;
16642;SDS011;8435;52.184;5.406;2024-03-23T05:33:39;9.07;;;2.80;;
16642;SDS011;8435;52.184;5.406;2024-03-23T05:36:05;10.17;;;2.93;;
16642;SDS011;8435;52.184;5.406;2024-03-23T05:38:36;7.63;;;2.93;;
16642;SDS011;8435;52.184;5.406;2024-03-23T05:41:02;9.73;;;2.60;;
16642;SDS011;8435;52.184;5.406;2024-03-23T05:43:29;10.60;;;2.50;;
16642;SDS011;8435;52.184;5.406;2024-03-23T05:45:54;6.03;;;2.00;;
16642;SDS011;8435;52.184;5.406;2024-03-23T05:48:21;10.30;;;2.53;;
16642;SDS011;8435;52.184;5.406;2024-03-23T05:50:49;9.60;;;2.23;;
16642;SDS011;8435;52.184;5.406;2024-03-23T05:53:16;6.03;;;2.10;;
16642;SDS011;8435;52.184;5.406;2024-03-23T05:55:43;7.13;;;2.30;;
16642;SDS011;8435;52.184;5.406;2024-03-23T05:58:10;7.00;;;2.50;;
16642;SDS011;8435;52.184;5.406;2024-03-23T06:00:36;5.30;;;1.87;;
16642;SDS011;8435;52.184;5.406;2024-03-23T06:03:03;6.27;;;1.70;;
16642;SDS011;8435;52.184;5.406;2024-03-23T06:05:29;9.50;;;2.47;;
16642;SDS011;8435;52.184;5.406;2024-03-23T06:07:57;7.67;;;2.33;;
16642;SDS011;8435;52.184;5.406;2024-03-23T06:10:23;4.73;;;1.80;;
16642;SDS011;8435;52.184;5.406;2024-03-23T06:12:50;6.10;;;2.13;;
16642;SDS011;8435;52.184;5.406;2024-03-23T06:15:17;7.27;;;2.17;;
16642;SDS011;8435;52.184;5.406;2024-03-23T06:17:43;6.23;;;1.93;;
16642;SDS011;8435;52.184;5.406;2024-03-23T06:20:09;8.33;;;2.37;;
16642;SDS011;8435;52.184;5.406;2024-03-23T06:22:36;4.43;;;2.07;;
16642;SDS011;8435;52.184;5.406;2024-03-23T06:25:04;4.20;;;1.60;;
16642;SDS011;8435;52.184;5.406;2024-03-23T06:27:31;6.50;;;2.30;;
16642;SDS011;8435;52.184;5.406;2024-03-23T06:29:57;6.07;;;2.63;;
16642;SDS011;8435;52.184;5.406;2024-03-23T06:32:24;6.10;;;2.00;;
16642;SDS011;8435;52.184;5.406;2024-03-23T06:34:50;6.43;;;2.53;;
16642;SDS011;8435;52.184;5.406;2024-03-23T06:37:16;5.93;;;1.77;;
16642;SDS011;8435;52.184;5.406;2024-03-23T06:39:42;5.90;;;2.10;;
16642;SDS011;8435;52.184;5.406;2024-03-23T06:42:10;7.27;;;2.33;;
16642;SDS011;8435;52.184;5.406;2024-03-23T06:44:36;5.90;;;1.73;;
16642;SDS011;8435;52.184;5.406;2024-03-23T06:47:03;5.97;;;1.90;;
16642;SDS011;8435;52.184;5.406;2024-03-23T06:49:29;6.73;;;2.40;;
16642;SDS011;8435;52.184;5.406;2024-03-23T06:51:55;6.23;;;2.40;;
16642;SDS011;8435;52.184;5.406;2024-03-23T06:54:21;5.40;;;1.90;;
16642;SDS011;8435;52.184;5.406;2024-03-23T06:56:48;4.97;;;1.87;;
16642;SDS011;8435;52.184;5.406;2024-03-23T06:59:15;5.33;;;2.07;;
16642;SDS011;8435;52.184;5.406;2024-03-23T07:01:42;7.13;;;2.30;;
16642;SDS011;8435;52.184;5.406;2024-03-23T07:04:08;6.27;;;2.50;;
16642;SDS011;8435;52.184;5.406;2024-03-23T07:06:35;6.40;;;2.03;;
16642;SDS011;8435;52.184;5.406;2024-03-23T07:09:07;6.47;;;2.63;;
16642;SDS011;8435;52.184;5.406;2024-03-23T07:11:34;4.83;;;2.40;;
16642;SDS011;8435;52.184;5.406;2024-03-23T07:14:00;9.30;;;3.07;;
16642;SDS011;8435;52.184;5.406;2024-03-23T07:16:29;5.60;;;2.87;;
16642;SDS011;8435;52.184;5.406;2024-03-23T07:18:55;7.90;;;2.57;;
16642;SDS011;8435;52.184;5.406;2024-03-23T07:21:21;6.10;;;2.40;;
16642;SDS011;8435;52.184;5.406;2024-03-23T07:23:47;5.10;;;2.53;;
16642;SDS011;8435;52.184;5.406;2024-03-23T07:26:14;6.63;;;2.20;;
16642;SDS011;8435;52.184;5.406;2024-03-23T07:28:40;7.10;;;2.80;;
16642;SDS011;8435;52.184;5.406;2024-03-23T07:31:09;6.33;;;2.60;;
16642;SDS011;8435;52.184;5.406;2024-03-23T07:33:37;8.20;;;3.07;;
16642;SDS011;8435;52.184;5.406;2024-03-23T07:36:07;6.53;;;2.93;;
16642;SDS011;8435;52.184;5.406;2024-03-23T07:38:33;5.10;;;2.97;;
16642;SDS011;8435;52.184;5.406;2024-03-23T07:41:04;6.70;;;2.40;;
16642;SDS011;8435;52.184;5.406;2024-03-23T07:43:30;9.63;;;2.97;;
16642;SDS011;8435;52.184;5.406;2024-03-23T07:45:57;8.00;;;2.70;;
16642;SDS011;8435;52.184;5.406;2024-03-23T07:48:23;6.40;;;3.07;;
16642;SDS011;8435;52.184;5.406;2024-03-23T07:50:58;7.03;;;2.70;;
16642;SDS011;8435;52.184;5.406;2024-03-23T07:53:24;7.87;;;2.80;;
16642;SDS011;8435;52.184;5.406;2024-03-23T07:55:54;5.93;;;2.47;;
16642;SDS011;8435;52.184;5.406;2024-03-23T07:58:21;5.90;;;2.43;;
16642;SDS011;8435;52.184;5.406;2024-03-23T08:00:48;7.53;;;2.53;;
16642;SDS011;8435;52.184;5.406;2024-03-23T08:03:14;5.20;;;2.13;;
16642;SDS011;8435;52.184;5.406;2024-03-23T08:05:41;9.27;;;2.47;;
16642;SDS011;8435;52.184;5.406;2024-03-23T08:08:08;5.00;;;2.30;;
16642;SDS011;8435;52.184;5.406;2024-03-23T08:10:35;7.97;;;2.53;;
16642;SDS011;8435;52.184;5.406;2024-03-23T08:13:01;6.33;;;2.40;;
16642;SDS011;8435;52.184;5.406;2024-03-23T08:15:29;5.87;;;2.43;;
16642;SDS011;8435;52.184;5.406;2024-03-23T08:17:57;7.57;;;2.60;;
16642;SDS011;8435;52.184;5.406;2024-03-23T08:20:25;4.07;;;2.23;;
16642;SDS011;8435;52.184;5.406;2024-03-23T08:22:50;8.00;;;2.40;;
16642;SDS011;8435;52.184;5.406;2024-03-23T08:25:18;8.10;;;2.63;;
16642;SDS011;8435;52.184;5.406;2024-03-23T08:27:44;8.17;;;2.33;;
16642;SDS011;8435;52.184;5.406;2024-03-23T08:30:11;9.70;;;2.20;;
16642;SDS011;8435;52.184;5.406;2024-03-23T08:32:37;5.73;;;2.10;;
16642;SDS011;8435;52.184;5.406;2024-03-23T08:35:04;6.20;;;2.20;;
16642;SDS011;8435;52.184;5.406;2024-03-23T08:37:32;5.20;;;1.80;;
16642;SDS011;8435;52.184;5.406;2024-03-23T08:39:58;6.87;;;2.13;;
16642;SDS011;8435;52.184;5.406;2024-03-23T08:42:25;4.07;;;1.80;;
16642;SDS011;8435;52.184;5.406;2024-03-23T08:44:52;4.50;;;1.77;;
16642;SDS011;8435;52.184;5.406;2024-03-23T08:47:18;3.83;;;1.70;;
16642;SDS011;8435;52.184;5.406;2024-03-23T08:49:45;5.67;;;1.90;;
16642;SDS011;8435;52.184;5.406;2024-03-23T08:52:10;5.43;;;2.20;;
16642;SDS011;8435;52.184;5.406;2024-03-23T08:54:37;6.50;;;2.07;;
16642;SDS011;8435;52.184;5.406;2024-03-23T08:57:03;7.20;;;2.10;;
16642;SDS011;8435;52.184;5.406;2024-03-23T08:59:31;6.27;;;2.27;;
16642;SDS011;8435;52.184;5.406;2024-03-23T09:01:57;4.80;;;1.83;;
16642;SDS011;8435;52.184;5.406;2024-03-23T09:04:24;6.13;;;1.77;;
16642;SDS011;8435;52.184;5.406;2024-03-23T09:06:50;5.90;;;1.70;;
16642;SDS011;8435;52.184;5.406;2024-03-23T09:09:17;7.47;;;2.40;;
16642;SDS011;8435;52.184;5.406;2024-03-23T09:11:42;6.40;;;2.00;;
16642;SDS011;8435;52.184;5.406;2024-03-23T09:14:09;3.70;;;1.40;;
16642;SDS011;8435;52.184;5.406;2024-03-23T09:16:36;3.10;;;1.47;;
16642;SDS011;8435;52.184;5.406;2024-03-23T09:19:03;3.30;;;1.27;;
16642;SDS011;8435;52.184;5.406;2024-03-23T09:21:29;3.90;;;1.23;;
16642;SDS011;8435;52.184;5.406;2024-03-23T09:23:56;4.77;;;1.57;;
16642;SDS011;8435;52.184;5.406;2024-03-23T09:26:21;3.73;;;1.37;;
16642;SDS011;8435;52.184;5.406;2024-03-23T09:28:48;5.50;;;1.50;;
16642;SDS011;8435;52.184;5.406;2024-03-23T09:31:14;7.63;;;1.83;;
16642;SDS011;8435;52.184;5.406;2024-03-23T09:33:42;5.10;;;2.00;;
16642;SDS011;8435;52.184;5.406;2024-03-23T09:36:08;4.90;;;1.90;;
16642;SDS011;8435;52.184;5.406;2024-03-23T09:38:35;6.10;;;1.90;;
16642;SDS011;8435;52.184;5.406;2024-03-23T09:41:06;4.37;;;1.87;;
16642;SDS011;8435;52.184;5.406;2024-03-23T09:43:33;8.40;;;2.03;;
16642;SDS011;8435;52.184;5.406;2024-03-23T09:45:59;3.07;;;1.60;;
16642;SDS011;8435;52.184;5.406;2024-03-23T09:48:26;4.30;;;1.73;;
16642;SDS011;8435;52.184;5.406;2024-03-23T09:50:53;4.40;;;2.13;;
16642;SDS011;8435;52.184;5.406;2024-03-23T09:53:20;7.20;;;2.20;;
16642;SDS011;8435;52.184;5.406;2024-03-23T09:55:47;5.73;;;2.10;;
16642;SDS011;8435;52.184;5.406;2024-03-23T09:58:15;5.43;;;1.93;;
16642;SDS011;8435;52.184;5.406;2024-03-23T10:00:42;6.07;;;2.17;;
16642;SDS011;8435;52.184;5.406;2024-03-23T10:03:09;8.30;;;2.00;;
16642;SDS011;8435;52.184;5.406;2024-03-23T10:05:36;5.67;;;1.57;;
16642;SDS011;8435;52.184;5.406;2024-03-23T10:08:17;4.53;;;1.57;;
16642;SDS011;8435;52.184;5.406;2024-03-23T10:10:44;7.13;;;2.20;;
16642;SDS011;8435;52.184;5.406;2024-03-23T10:13:23;7.73;;;2.20;;
16642;SDS011;8435;52.184;5.406;2024-03-23T10:16:00;6.37;;;1.93;;
16642;SDS011;8435;52.184;5.406;2024-03-23T10:18:26;4.30;;;1.80;;
16642;SDS011;8435;52.184;5.406;2024-03-23T10:21:06;7.27;;;2.40;;
16642;SDS011;8435;52.184;5.406;2024-03-23T10:23:35;6.50;;;1.63;;
16642;SDS011;8435;52.184;5.406;2024-03-23T10:26:12;5.33;;;2.20;;
16642;SDS011;8435;52.184;5.406;2024-03-23T10:28:52;5.47;;;1.60;;
16642;SDS011;8435;52.184;5.406;2024-03-23T10:31:19;6.80;;;2.33;;
16642;SDS011;8435;52.184;5.406;2024-03-23T10:33:45;5.30;;;2.20;;
16642;SDS011;8435;52.184;5.406;2024-03-23T10:36:13;4.20;;;2.03;;
16642;SDS011;8435;52.184;5.406;2024-03-23T10:38:41;6.10;;;2.17;;
16642;SDS011;8435;52.184;5.406;2024-03-23T10:41:09;5.60;;;1.90;;
16642;SDS011;8435;52.184;5.406;2024-03-23T10:43:35;6.30;;;1.73;;
16642;SDS011;8435;52.184;5.406;2024-03-23T10:46:02;5.47;;;1.70;;
16642;SDS011;8435;52.184;5.406;2024-03-23T10:48:29;4.47;;;1.93;;
16642;SDS011;8435;52.184;5.406;2024-03-23T10:50:56;5.20;;;1.80;;
16642;SDS011;8435;52.184;5.406;2024-03-23T10:53:22;7.47;;;1.97;;
16642;SDS011;8435;52.184;5.406;2024-03-23T10:55:54;5.60;;;2.10;;
16642;SDS011;8435;52.184;5.406;2024-03-23T10:58:21;4.10;;;1.47;;
16642;SDS011;8435;52.184;5.406;2024-03-23T11:00:52;5.17;;;1.77;;
16642;SDS011;8435;52.184;5.406;2024-03-23T11:03:31;5.80;;;2.13;;
16642;SDS011;8435;52.184;5.406;2024-03-23T11:05:59;6.97;;;2.10;;
16642;SDS011;8435;52.184;5.406;2024-03-23T11:08:32;8.53;;;2.27;;
16642;SDS011;8435;52.184;5.406;2024-03-23T11:11:14;3.70;;;1.70;;
16642;SDS011;8435;52.184;5.406;2024-03-23T11:13:41;8.27;;;1.73;;
16642;SDS011;8435;52.184;5.406;2024-03-23T11:16:21;4.93;;;1.80;;
16642;SDS011;8435;52.184;5.406;2024-03-23T11:18:48;5.90;;;1.90;;
16642;SDS011;8435;52.184;5.406;2024-03-23T11:24:18;4.20;;;1.70;;
16642;SDS011;8435;52.184;5.406;2024-03-23T11:26:47;4.43;;;1.47;;
16642;SDS011;8435;52.184;5.406;2024-03-23T11:29:13;7.23;;;1.77;;
16642;SDS011;8435;52.184;5.406;2024-03-23T11:31:45;4.47;;;1.60;;
16642;SDS011;8435;52.184;5.406;2024-03-23T11:34:11;5.20;;;1.50;;
16642;SDS011;8435;52.184;5.406;2024-03-23T11:36:38;7.47;;;1.97;;
16642;SDS011;8435;52.184;5.406;2024-03-23T11:39:11;4.87;;;1.63;;
16642;SDS011;8435;52.184;5.406;2024-03-23T11:41:49;6.07;;;2.00;;
16642;SDS011;8435;52.184;5.406;2024-03-23T11:44:16;5.17;;;1.70;;
16642;SDS011;8435;52.184;5.406;2024-03-23T11:46:43;5.30;;;1.90;;
16642;SDS011;8435;52.184;5.406;2024-03-23T11:49:19;5.07;;;2.00;;
16642;SDS011;8435;52.184;5.406;2024-03-23T11:51:49;4.83;;;1.77;;
16642;SDS011;8435;52.184;5.406;2024-03-23T11:54:15;5.83;;;1.80;;
16642;SDS011;8435;52.184;5.406;2024-03-23T11:56:54;5.63;;;2.33;;
16642;SDS011;8435;52.184;5.406;2024-03-23T11:59:31;6.73;;;2.00;;
16642;SDS011;8435;52.184;5.406;2024-03-23T12:02:06;4.83;;;1.63;;
16642;SDS011;8435;52.184;5.406;2024-03-23T12:04:32;5.43;;;1.67;;
16642;SDS011;8435;52.184;5.406;2024-03-23T12:07:13;4.47;;;1.60;;
16642;SDS011;8435;52.184;5.406;2024-03-23T12:09:41;3.00;;;1.93;;
16642;SDS011;8435;52.184;5.406;2024-03-23T12:12:10;5.97;;;1.63;;
16642;SDS011;8435;52.184;5.406;2024-03-23T12:14:40;4.97;;;1.90;;
16642;SDS011;8435;52.184;5.406;2024-03-23T12:17:07;6.17;;;1.60;;
16642;SDS011;8435;52.184;5.406;2024-03-23T12:19:37;5.43;;;1.80;;
16642;SDS011;8435;52.184;5.406;2024-03-23T12:22:04;4.67;;;1.80;;
16642;SDS011;8435;52.184;5.406;2024-03-23T12:24:30;6.10;;;1.97;;
16642;SDS011;8435;52.184;5.406;2024-03-23T12:26:59;5.87;;;1.73;;
16642;SDS011;8435;52.184;5.406;2024-03-23T12:29:27;3.37;;;1.30;;
16642;SDS011;8435;52.184;5.406;2024-03-23T12:31:55;7.53;;;1.90;;
16642;SDS011;8435;52.184;5.406;2024-03-23T12:34:21;7.20;;;2.10;;
16642;SDS011;8435;52.184;5.406;2024-03-23T12:36:47;6.00;;;1.40;;
16642;SDS011;8435;52.184;5.406;2024-03-23T12:39:13;7.23;;;1.83;;
16642;SDS011;8435;52.184;5.406;2024-03-23T12:41:40;7.47;;;2.23;;
16642;SDS011;8435;52.184;5.406;2024-03-23T12:44:05;4.30;;;1.57;;
16642;SDS011;8435;52.184;5.406;2024-03-23T12:46:35;7.27;;;1.93;;
16642;SDS011;8435;52.184;5.406;2024-03-23T12:49:01;6.03;;;1.90;;
16642;SDS011;8435;52.184;5.406;2024-03-23T12:51:28;3.33;;;1.57;;
16642;SDS011;8435;52.184;5.406;2024-03-23T12:53:54;5.97;;;1.73;;
16642;SDS011;8435;52.184;5.406;2024-03-23T12:56:20;3.03;;;1.50;;
16642;SDS011;8435;52.184;5.406;2024-03-23T12:58:47;6.33;;;1.70;;
16642;SDS011;8435;52.184;5.406;2024-03-23T13:01:16;6.57;;;1.73;;
16642;SDS011;8435;52.184;5.406;2024-03-23T13:03:43;7.03;;;2.10;;
16642;SDS011;8435;52.184;5.406;2024-03-23T13:06:12;4.47;;;1.70;;
16642;SDS011;8435;52.184;5.406;2024-03-23T13:08:38;3.50;;;1.27;;
16642;SDS011;8435;52.184;5.406;2024-03-23T13:11:05;2.63;;;1.30;;
16642;SDS011;8435;52.184;5.406;2024-03-23T13:13:33;4.30;;;1.60;;
16642;SDS011;8435;52.184;5.406;2024-03-23T13:16:00;4.43;;;1.43;;
16642;SDS011;8435;52.184;5.406;2024-03-23T13:18:27;8.80;;;1.80;;
16642;SDS011;8435;52.184;5.406;2024-03-23T13:20:55;3.53;;;1.37;;
16642;SDS011;8435;52.184;5.406;2024-03-23T13:23:21;4.47;;;1.60;;
16642;SDS011;8435;52.184;5.406;2024-03-23T13:25:50;3.60;;;1.40;;
16642;SDS011;8435;52.184;5.406;2024-03-23T13:28:17;4.23;;;1.27;;
16642;SDS011;8435;52.184;5.406;2024-03-23T13:30:49;4.30;;;1.30;;
16642;SDS011;8435;52.184;5.406;2024-03-23T13:33:15;6.53;;;1.33;;
16642;SDS011;8435;52.184;5.406;2024-03-23T13:35:48;2.93;;;1.07;;
16642;SDS011;8435;52.184;5.406;2024-03-23T13:38:16;9.53;;;1.63;;
16642;SDS011;8435;52.184;5.406;2024-03-23T13:40:49;3.30;;;1.30;;
16642;SDS011;8435;52.184;5.406;2024-03-23T13:43:16;2.80;;;1.00;;
16642;SDS011;8435;52.184;5.406;2024-03-23T13:45:43;3.33;;;1.10;;
16642;SDS011;8435;52.184;5.406;2024-03-23T13:48:08;3.63;;;1.17;;
16642;SDS011;8435;52.184;5.406;2024-03-23T13:50:35;3.60;;;1.23;;
16642;SDS011;8435;52.184;5.406;2024-03-23T13:53:01;2.67;;;1.43;;
16642;SDS011;8435;52.184;5.406;2024-03-23T13:55:29;2.50;;;1.30;;
16642;SDS011;8435;52.184;5.406;2024-03-23T13:57:55;3.47;;;1.40;;
16642;SDS011;8435;52.184;5.406;2024-03-23T14:00:21;2.90;;;1.20;;
16642;SDS011;8435;52.184;5.406;2024-03-23T14:02:47;4.20;;;1.20;;
16642;SDS011;8435;52.184;5.406;2024-03-23T14:05:14;2.67;;;1.40;;
16642;SDS011;8435;52.184;5.406;2024-03-23T14:07:40;3.07;;;1.40;;
16642;SDS011;8435;52.184;5.406;2024-03-23T14:10:07;3.17;;;1.40;;
16642;SDS011;8435;52.184;5.406;2024-03-23T14:12:37;2.73;;;1.20;;
16642;SDS011;8435;52.184;5.406;2024-03-23T14:15:05;4.93;;;1.47;;
16642;SDS011;8435;52.184;5.406;2024-03-23T14:17:31;6.33;;;1.30;;
16642;SDS011;8435;52.184;5.406;2024-03-23T14:19:57;3.33;;;1.70;;
16642;SDS011;8435;52.184;5.406;2024-03-23T14:22:26;6.77;;;2.07;;
16642;SDS011;8435;52.184;5.406;2024-03-23T14:24:53;6.10;;;1.60;;
16642;SDS011;8435;52.184;5.406;2024-03-23T14:27:19;4.57;;;1.53;;
16642;SDS011;8435;52.184;5.406;2024-03-23T14:29:48;6.03;;;2.20;;
16642;SDS011;8435;52.184;5.406;2024-03-23T14:32:14;3.60;;;1.60;;
16642;SDS011;8435;52.184;5.406;2024-03-23T14:34:41;3.90;;;1.80;;
16642;SDS011;8435;52.184;5.406;2024-03-23T14:37:07;8.07;;;2.23;;
16642;SDS011;8435;52.184;5.406;2024-03-23T14:39:33;3.93;;;1.30;;
16642;SDS011;8435;52.184;5.406;2024-03-23T14:41:59;4.63;;;1.67;;
16642;SDS011;8435;52.184;5.406;2024-03-23T14:44:26;4.63;;;1.47;;
16642;SDS011;8435;52.184;5.406;2024-03-23T14:46:54;4.13;;;1.50;;
16642;SDS011;8435;52.184;5.406;2024-03-23T14:49:21;2.57;;;1.30;;
16642;SDS011;8435;52.184;5.406;2024-03-23T14:51:47;2.53;;;1.10;;
16642;SDS011;8435;52.184;5.406;2024-03-23T14:54:13;4.63;;;1.20;;
16642;SDS011;8435;52.184;5.406;2024-03-23T14:56:39;3.80;;;1.30;;
16642;SDS011;8435;52.184;5.406;2024-03-23T14:59:06;5.13;;;1.50;;
16642;SDS011;8435;52.184;5.406;2024-03-23T15:01:32;3.40;;;1.33;;
16642;SDS011;8435;52.184;5.406;2024-03-23T15:04:01;5.87;;;1.60;;
16642;SDS011;8435;52.184;5.406;2024-03-23T15:06:28;3.53;;;1.20;;
16642;SDS011;8435;52.184;5.406;2024-03-23T15:08:55;3.20;;;1.50;;
16642;SDS011;8435;52.184;5.406;2024-03-23T15:11:21;6.30;;;1.63;;
16642;SDS011;8435;52.184;5.406;2024-03-23T15:13:49;3.27;;;1.13;;
16642;SDS011;8435;52.184;5.406;2024-03-23T15:16:16;5.60;;;1.50;;
16642;SDS011;8435;52.184;5.406;2024-03-23T15:18:45;3.93;;;1.20;;
16642;SDS011;8435;52.184;5.406;2024-03-23T15:21:12;4.60;;;1.50;;
16642;SDS011;8435;52.184;5.406;2024-03-23T15:23:44;3.00;;;1.20;;
16642;SDS011;8435;52.184;5.406;2024-03-23T15:26:10;3.93;;;1.20;;
16642;SDS011;8435;52.184;5.406;2024-03-23T15:28:37;4.37;;;1.50;;
16642;SDS011;8435;52.184;5.406;2024-03-23T15:31:03;4.03;;;1.73;;
16642;SDS011;8435;52.184;5.406;2024-03-23T15:33:30;2.13;;;1.37;;
16642;SDS011;8435;52.184;5.406;2024-03-23T15:35:58;4.63;;;1.53;;
16642;SDS011;8435;52.184;5.406;2024-03-23T15:38:26;3.27;;;1.37;;
16642;SDS011;8435;52.184;5.406;2024-03-23T15:40:52;4.30;;;1.30;;
16642;SDS011;8435;52.184;5.406;2024-03-23T15:43:19;3.97;;;1.30;;
16642;SDS011;8435;52.184;5.406;2024-03-23T15:45:44;3.87;;;1.10;;
16642;SDS011;8435;52.184;5.406;2024-03-23T15:48:20;3.80;;;1.33;;
16642;SDS011;8435;52.184;5.406;2024-03-23T15:50:50;4.40;;;1.30;;
16642;SDS011;8435;52.184;5.406;2024-03-23T15:53:18;3.70;;;1.70;;
16642;SDS011;8435;52.184;5.406;2024-03-23T15:55:45;5.10;;;1.40;;